createdAt,value
2022-09-20T05:29:53.779Z,97262.28
2022-09-20T05:32:05.125Z,97264.94
2022-09-20T05:34:18.164Z,97265.50
2022-09-20T05:36:34.217Z,97265.88
2022-09-20T05:38:48.254Z,97257.63
2022-09-20T05:41:05.775Z,97272.72
2022-09-20T05:43:12.811Z,97259.19
2022-09-20T05:45:32.789Z,97270.19
2022-09-20T05:47:46.658Z,97273.88
2022-09-20T05:50:01.396Z,97275.31
2022-09-20T05:52:26.418Z,97278.81
2022-09-20T05:54:56.710Z,97276.75
2022-09-20T05:57:13.839Z,97281.84
2022-09-20T05:59:29.908Z,97280.38
2022-09-20T06:01:40.818Z,97278.31
2022-09-20T06:03:49.309Z,97273.41
2022-09-20T06:06:03.530Z,97283.63
2022-09-20T06:08:24.492Z,97294.66
2022-09-20T06:10:56.098Z,97294.44
2022-09-20T06:13:05.383Z,97299.38
2022-09-20T06:15:19.360Z,97305.31
2022-09-20T06:17:29.644Z,97297.09
2022-09-20T06:19:40.230Z,97304.88
2022-09-20T06:21:51.895Z,97299.09
2022-09-20T06:23:59.750Z,97305.88
2022-09-20T06:26:07.748Z,97299.50
2022-09-20T06:28:19.222Z,97308.91
2022-09-20T06:30:29.257Z,97301.50
2022-09-20T06:32:34.635Z,97311.97
2022-09-20T06:34:38.744Z,97310.72
2022-09-20T06:37:06.369Z,97304.97
2022-09-20T06:39:38.428Z,97308.81
2022-09-20T06:41:42.909Z,97313.13
2022-09-20T06:43:46.095Z,97309.00
2022-09-20T06:45:49.177Z,97312.28
2022-09-20T06:47:53.920Z,97306.94
2022-09-20T06:49:59.086Z,97305.91
2022-09-20T06:52:02.439Z,97315.53
2022-09-20T06:54:08.599Z,97321.47
2022-09-20T06:56:17.830Z,97304.66
2022-09-20T06:58:20.665Z,97312.44
2022-09-20T07:00:23.752Z,97315.09
2022-09-20T07:02:27.499Z,97314.06
2022-09-20T07:04:33.516Z,97311.81
2022-09-20T07:06:37.003Z,97308.09
2022-09-20T07:08:40.433Z,97311.59
2022-09-20T07:10:44.033Z,97314.41
2022-09-20T07:12:47.642Z,97312.31
2022-09-20T07:14:51.631Z,97315.63
2022-09-20T07:16:54.871Z,97310.66
2022-09-20T07:18:58.426Z,97300.81
2022-09-20T07:21:03.122Z,97312.88
2022-09-20T07:23:06.455Z,97315.94
2022-09-20T07:25:10.464Z,97313.06
2022-09-20T07:27:16.453Z,97303.19
2022-09-20T07:29:19.316Z,97297.19
2022-09-20T07:31:27.033Z,97300.25
2022-09-20T07:33:31.550Z,97315.84
2022-09-20T07:35:34.573Z,97306.59
2022-09-20T07:37:42.246Z,97308.22
2022-09-20T07:39:46.059Z,97316.59
2022-09-20T07:41:50.890Z,97310.63
2022-09-20T07:43:54.183Z,97313.66
2022-09-20T07:45:59.647Z,97312.03
2022-09-20T07:48:05.981Z,97312.47
2022-09-20T07:50:09.912Z,97314.94
2022-09-20T07:52:14.656Z,97316.56
2022-09-20T07:54:21.344Z,97311.66
2022-09-20T07:56:24.218Z,97312.91
2022-09-20T07:58:30.637Z,97325.03
2022-09-20T08:00:33.630Z,97321.09
2022-09-20T08:02:37.219Z,97319.81
2022-09-20T08:04:41.209Z,97315.88
2022-09-20T08:06:46.105Z,97313.66
2022-09-20T08:08:49.413Z,97320.03
2022-09-20T08:10:56.784Z,97325.75
2022-09-20T08:15:26.809Z,97320.38
2022-09-20T08:17:30.550Z,97324.00
2022-09-20T08:19:35.739Z,97325.63
2022-09-20T08:21:42.346Z,97320.69
2022-09-20T08:23:48.834Z,97323.72
2022-09-20T08:25:57.531Z,97329.00
2022-09-20T08:28:00.516Z,97328.91
2022-09-20T08:30:03.667Z,97324.97
2022-09-20T08:32:06.921Z,97326.19
2022-09-20T08:34:11.724Z,97323.66
2022-09-20T08:36:16.909Z,97329.16
2022-09-20T08:40:44.679Z,97323.13
2022-09-20T08:42:49.416Z,97326.41
2022-09-20T08:44:58.130Z,97325.75
2022-09-20T08:47:11.838Z,97330.63
2022-09-20T08:49:21.717Z,97321.69
2022-09-20T08:51:34.667Z,97327.22
2022-09-20T08:53:49.216Z,97336.41
2022-09-20T08:55:52.716Z,97334.13
2022-09-20T08:57:59.303Z,97331.63
2022-09-20T09:00:04.750Z,97332.25
2022-09-20T09:02:20.032Z,97329.19
2022-09-20T09:04:24.824Z,97332.25
2022-09-20T09:06:29.888Z,97332.25
2022-09-20T09:08:38.002Z,97332.44
2022-09-20T09:10:44.209Z,97324.25
2022-09-20T09:12:49.417Z,97325.06
2022-09-20T09:14:59.764Z,97319.28
2022-09-20T09:17:02.867Z,97322.88
2022-09-20T09:19:33.202Z,97318.28
2022-09-20T09:21:36.460Z,97320.50
2022-09-20T09:23:42.617Z,97319.44
2022-09-20T09:25:45.604Z,97318.88
2022-09-20T09:27:55.040Z,97310.84
2022-09-20T09:29:59.678Z,97313.06
2022-09-20T09:32:25.296Z,97308.91
2022-09-20T09:34:30.372Z,97306.47
2022-09-20T09:36:34.759Z,97313.31
2022-09-20T09:38:40.143Z,97310.44
2022-09-20T09:40:51.235Z,97315.56
2022-09-20T09:42:56.410Z,97299.88
2022-09-20T09:45:12.235Z,97308.47
2022-09-20T09:47:31.615Z,97293.25
2022-09-20T09:49:37.067Z,97299.41
2022-09-20T09:51:42.651Z,97295.69
2022-09-20T09:53:47.816Z,97303.84
2022-09-20T09:56:19.532Z,97295.59
2022-09-20T09:58:33.898Z,97298.38
2022-09-20T10:00:43.073Z,97289.31
2022-09-20T10:03:14.378Z,97296.31
2022-09-20T10:05:24.310Z,97291.78
2022-09-20T10:07:39.051Z,97283.28
2022-09-20T10:10:00.114Z,97297.38
2022-09-20T10:12:26.910Z,97293.44
2022-09-20T10:14:41.528Z,97299.13
2022-09-20T10:17:06.592Z,97290.28
2022-09-20T10:19:22.059Z,97290.41
2022-09-20T10:21:41.635Z,97291.81
2022-09-20T10:24:04.639Z,97288.53
2022-09-20T10:26:22.628Z,97293.88
2022-09-20T10:28:49.311Z,97283.78
2022-09-20T10:31:03.492Z,97288.09
2022-09-20T10:33:19.862Z,97294.84
2022-09-20T10:35:28.333Z,97292.75
2022-09-20T10:37:44.041Z,97279.69
2022-09-20T10:40:00.458Z,97283.56
2022-09-20T10:42:37.085Z,97267.63
2022-09-20T10:44:53.865Z,97270.69
2022-09-20T10:47:06.800Z,97273.38
2022-09-20T10:49:23.715Z,97268.44
2022-09-20T10:51:39.279Z,97262.66
2022-09-20T10:53:50.351Z,97273.94
2022-09-20T10:56:04.393Z,97264.03
2022-09-20T10:58:31.835Z,97266.13
2022-09-20T11:00:47.747Z,97262.03
2022-09-20T11:03:04.731Z,97266.13
2022-09-20T11:05:21.951Z,97275.56
2022-09-20T11:07:38.805Z,97264.03
2022-09-20T11:09:49.022Z,97266.00
2022-09-20T11:11:55.691Z,97266.13
2022-09-20T11:14:04.632Z,97267.28
2022-09-20T11:16:14.566Z,97271.84
2022-09-20T11:18:23.916Z,97265.44
2022-09-20T11:20:31.236Z,97267.06
2022-09-20T11:22:40.155Z,97266.81
2022-09-20T11:24:46.472Z,97272.06
2022-09-20T11:26:53.119Z,97265.19
2022-09-20T11:29:00.995Z,97272.75
2022-09-20T11:31:11.696Z,97270.66
2022-09-20T11:33:20.188Z,97271.00
2022-09-20T11:35:31.873Z,97261.09
2022-09-20T11:37:40.662Z,97268.66
2022-09-20T11:39:50.134Z,97266.34
2022-09-20T11:41:57.346Z,97256.75
2022-09-20T11:44:04.264Z,97260.50
2022-09-20T11:46:11.540Z,97267.25
2022-09-20T11:48:21.147Z,97261.06
2022-09-20T11:50:48.497Z,97260.25
2022-09-20T11:53:03.460Z,97267.00
2022-09-20T11:55:34.485Z,97261.63
2022-09-20T11:57:38.609Z,97267.81
2022-09-20T11:59:43.301Z,97254.16
2022-09-20T12:01:47.886Z,97260.72
2022-09-20T12:04:08.726Z,97270.94
2022-09-20T12:06:29.976Z,97257.78
2022-09-20T12:08:37.175Z,97263.47
2022-09-20T12:10:42.066Z,97257.06
2022-09-20T12:12:49.662Z,97257.66
2022-09-20T12:14:59.576Z,97253.94
2022-09-20T12:17:07.026Z,97253.44
2022-09-20T12:19:14.734Z,97258.31
2022-09-20T12:21:20.740Z,97256.22
2022-09-20T12:24:03.240Z,97253.28
2022-09-20T12:26:14.809Z,97241.28
2022-09-20T12:28:17.894Z,97249.91
2022-09-20T12:30:23.487Z,97239.19
2022-09-20T12:32:47.538Z,97244.31
2022-09-20T12:34:50.507Z,97247.22
2022-09-20T12:37:20.162Z,97246.97
2022-09-20T12:39:30.048Z,97246.16
2022-09-20T12:41:55.555Z,97247.22
2022-09-20T12:44:05.635Z,97239.66
2022-09-20T12:46:12.327Z,97238.13
2022-09-20T12:48:20.860Z,97235.19
2022-09-20T12:50:42.292Z,97238.47
2022-09-20T12:52:55.226Z,97241.97
2022-09-20T12:55:04.682Z,97230.78
2022-09-20T12:57:28.326Z,97235.34
2022-09-20T12:59:31.557Z,97236.16
2022-09-20T13:01:38.886Z,97227.06
2022-09-20T13:03:43.990Z,97234.63
2022-09-20T13:05:48.833Z,97223.66
2022-09-20T13:08:01.571Z,97237.38
2022-09-20T13:10:15.236Z,97226.66
2022-09-20T13:12:19.648Z,97225.59
2022-09-20T13:14:26.028Z,97226.44
2022-09-20T13:16:33.243Z,97229.94
2022-09-20T13:18:37.822Z,97229.94
2022-09-20T13:20:44.463Z,97221.06
2022-09-20T13:22:48.466Z,97224.06
2022-09-20T13:24:55.136Z,97225.22
2022-09-20T13:27:07.634Z,97221.22
2022-09-20T13:29:27.426Z,97217.50
2022-09-20T13:31:33.687Z,97224.25
2022-09-20T13:33:36.979Z,97219.72
2022-09-20T13:35:40.216Z,97214.09
2022-09-20T13:37:54.638Z,97217.59
2022-09-20T13:39:58.522Z,97213.59
2022-09-20T13:42:07.033Z,97214.16
2022-09-20T13:44:19.814Z,97207.75
2022-09-20T13:46:27.671Z,97211.03
2022-09-20T13:48:32.414Z,97213.22
2022-09-20T13:50:45.751Z,97222.88
2022-09-20T13:52:53.126Z,97214.03
2022-09-20T13:54:58.714Z,97214.59
2022-09-20T13:57:04.419Z,97215.41
2022-09-20T13:59:07.594Z,97199.31
2022-09-20T14:01:25.399Z,97206.28
2022-09-20T14:03:36.520Z,97208.97
2022-09-20T14:05:39.610Z,97210.13
2022-09-20T14:07:46.300Z,97198.34
2022-09-20T14:09:50.839Z,97212.34
2022-09-20T14:11:54.930Z,97213.94
2022-09-20T14:14:08.654Z,97211.03
2022-09-20T14:16:13.501Z,97207.28
2022-09-20T14:18:21.531Z,97206.47
2022-09-20T14:20:26.939Z,97204.34
2022-09-20T14:22:30.846Z,97204.34
2022-09-20T14:24:35.848Z,97200.03
2022-09-20T14:26:40.289Z,97205.16
2022-09-20T14:28:44.211Z,97194.66
2022-09-20T14:30:49.353Z,97200.03
2022-09-20T14:32:55.719Z,97202.72
2022-09-20T14:35:06.016Z,97189.66
2022-09-20T14:37:15.224Z,97190.69
2022-09-20T14:39:20.179Z,97194.78
2022-09-20T14:41:29.821Z,97202.25
2022-09-20T14:43:34.877Z,97196.88
2022-09-20T14:45:39.952Z,97196.03
2022-09-20T14:47:55.183Z,97191.53
2022-09-20T14:49:59.494Z,97195.56
2022-09-20T14:52:36.430Z,97199.63
2022-09-20T14:54:39.248Z,97189.72
2022-09-20T14:56:43.798Z,97189.97
2022-09-20T14:59:05.865Z,97184.59
2022-09-20T15:01:24.346Z,97201.75
2022-09-20T15:03:31.117Z,97187.28
2022-09-20T15:05:34.218Z,97186.47
2022-09-20T15:07:42.031Z,97198.81
2022-09-20T15:09:44.796Z,97193.22
2022-09-20T15:11:49.972Z,97190.53
2022-09-20T15:13:53.017Z,97187.28
2022-09-20T15:15:56.285Z,97198.00
2022-09-20T15:17:59.076Z,97185.66
2022-09-20T15:20:05.602Z,97194.78
2022-09-20T15:22:11.015Z,97199.06
2022-09-20T15:24:17.876Z,97190.47
2022-09-20T15:26:21.959Z,97200.13
2022-09-20T15:28:26.732Z,97193.16
2022-09-20T15:30:30.342Z,97191.28
2022-09-20T15:32:33.563Z,97181.81
2022-09-20T15:34:36.444Z,97192.00
2022-09-20T15:36:40.392Z,97185.56
2022-09-20T15:38:43.351Z,97188.25
2022-09-20T15:40:51.453Z,97188.25
2022-09-20T15:42:58.123Z,97189.06
2022-09-20T15:45:01.917Z,97195.22
2022-09-20T15:47:05.672Z,97196.88
2022-09-20T15:49:09.904Z,97193.59
2022-09-20T15:51:15.097Z,97199.22
2022-09-20T15:53:18.406Z,97191.16
2022-09-20T15:55:22.310Z,97198.41
2022-09-20T15:57:26.875Z,97200.28
2022-09-20T15:59:29.557Z,97211.50
2022-09-20T16:01:35.523Z,97207.47
2022-09-20T16:03:38.730Z,97202.09
2022-09-20T16:05:41.501Z,97196.72
2022-09-20T16:07:44.318Z,97204.78
2022-09-20T16:09:47.144Z,97203.72
2022-09-20T16:11:50.588Z,97201.03
2022-09-20T16:13:55.995Z,97208.50
2022-09-20T16:16:00.690Z,97205.47
2022-09-20T16:18:20.944Z,97209.16
2022-09-20T16:20:23.620Z,97211.50
2022-09-20T16:22:26.834Z,97214.16
2022-09-20T16:24:31.598Z,97210.91
2022-09-20T16:26:35.436Z,97220.84
2022-09-20T16:28:38.235Z,97215.97
2022-09-20T16:30:42.405Z,97212.16
2022-09-20T16:32:46.240Z,97214.59
2022-09-20T16:34:49.766Z,97219.94
2022-09-20T16:36:54.165Z,97223.69
2022-09-20T16:38:57.190Z,97213.41
2022-09-20T16:41:02.408Z,97220.91
2022-09-20T16:43:08.719Z,97220.09
2022-09-20T16:45:13.329Z,97214.16
2022-09-20T16:47:20.398Z,97216.28
2022-09-20T16:49:26.707Z,97221.88
2022-09-20T16:51:31.841Z,97224.78
2022-09-20T16:53:34.721Z,97218.59
2022-09-20T16:55:38.374Z,97219.41
2022-09-20T16:57:41.050Z,97216.53
2022-09-20T16:59:44.351Z,97222.34
2022-09-20T17:01:47.896Z,97226.06
2022-09-20T17:03:52.580Z,97230.88
2022-09-20T17:06:02.043Z,97227.63
2022-09-20T17:08:04.946Z,97230.56
2022-09-20T17:10:08.734Z,97229.97
2022-09-20T17:12:12.339Z,97231.25
2022-09-20T17:14:17.175Z,97237.06
2022-09-20T17:16:21.792Z,97240.81
2022-09-20T17:18:25.291Z,97235.13
2022-09-20T17:20:30.038Z,97247.13
2022-09-20T17:22:32.834Z,97247.13
2022-09-20T17:24:35.586Z,97251.91
2022-09-20T17:26:40.134Z,97248.78
2022-09-20T17:28:46.016Z,97259.75
2022-09-20T17:30:48.896Z,97254.63
2022-09-20T17:32:51.725Z,97254.28
2022-09-20T17:34:54.404Z,97261.19
2022-09-20T17:36:59.074Z,97266.19
2022-09-20T17:39:04.607Z,97259.34
2022-09-20T17:41:10.111Z,97256.06
2022-09-20T17:43:12.909Z,97266.22
2022-09-20T17:45:16.652Z,97265.88
2022-09-20T17:47:19.897Z,97269.84
2022-09-20T17:49:23.903Z,97266.47
2022-09-20T17:51:30.046Z,97274.97
2022-09-20T17:53:35.794Z,97278.56
2022-09-20T17:55:38.717Z,97274.75
2022-09-20T17:57:41.618Z,97281.41
2022-09-20T17:59:44.759Z,97283.47
2022-09-20T18:01:50.616Z,97281.50
2022-09-20T18:03:53.376Z,97280.78
2022-09-20T18:05:56.091Z,97295.66
2022-09-20T18:07:59.382Z,97290.22
2022-09-20T18:10:03.480Z,97294.38
2022-09-20T18:12:08.712Z,97292.16
2022-09-20T18:14:11.764Z,97292.41
2022-09-20T18:16:17.080Z,97285.66
2022-09-20T18:18:20.062Z,97288.19
2022-09-20T18:20:22.824Z,97304.25
2022-09-20T18:22:25.645Z,97293.53
2022-09-20T18:24:28.407Z,97298.44
2022-09-20T18:26:33.315Z,97291.69
2022-09-20T18:28:36.098Z,97285.66
2022-09-20T18:30:39.903Z,97290.63
2022-09-20T18:32:44.420Z,97293.28
2022-09-20T18:34:51.101Z,97283.41
2022-09-20T18:36:56.383Z,97295.38
2022-09-20T18:38:59.847Z,97291.56
2022-09-20T18:41:03.230Z,97299.44
2022-09-20T18:43:09.067Z,97302.56
2022-09-20T18:45:12.794Z,97292.91
2022-09-20T18:47:15.495Z,97290.72
2022-09-20T18:49:18.217Z,97292.78
2022-09-20T18:51:22.342Z,97291.38
2022-09-20T18:53:27.283Z,97287.88
2022-09-20T18:55:31.122Z,97287.88
2022-09-20T18:57:34.482Z,97296.63
2022-09-20T18:59:39.307Z,97289.25
2022-09-20T19:02:02.404Z,97302.03
2022-09-20T19:04:22.764Z,97293.16
2022-09-20T19:06:31.555Z,97301.41
2022-09-20T19:08:42.394Z,97302.00
2022-09-20T19:10:50.510Z,97297.69
2022-09-20T19:13:03.512Z,97294.22
2022-09-20T19:15:21.471Z,97295.50
2022-09-20T19:17:35.488Z,97298.16
2022-09-20T19:19:46.774Z,97301.06
2022-09-20T19:21:58.536Z,97298.25
2022-09-20T19:24:12.511Z,97295.56
2022-09-20T19:26:21.895Z,97310.22
2022-09-20T19:28:25.781Z,97296.69
2022-09-20T19:30:30.701Z,97303.47
2022-09-20T19:32:34.850Z,97306.56
2022-09-20T19:34:39.741Z,97291.41
2022-09-20T19:36:54.328Z,97301.75
2022-09-20T19:39:08.912Z,97306.13
2022-09-20T19:41:27.468Z,97309.03
2022-09-20T19:43:46.539Z,97312.50
2022-09-20T19:45:57.311Z,97312.50
2022-09-20T19:48:07.456Z,97310.28
2022-09-20T19:50:17.149Z,97309.84
2022-09-20T19:52:21.713Z,97306.69
2022-09-20T19:54:25.411Z,97316.22
2022-09-20T19:56:29.659Z,97306.56
2022-09-20T19:58:33.042Z,97308.44
2022-09-20T20:00:36.722Z,97315.88
2022-09-20T20:02:42.693Z,97309.91
2022-09-20T20:04:46.226Z,97311.41
2022-09-20T20:07:00.518Z,97312.66
2022-09-20T20:09:10.104Z,97313.72
2022-09-20T20:11:21.872Z,97309.25
2022-09-20T20:13:50.816Z,97317.25
2022-09-20T20:16:01.166Z,97318.91
2022-09-20T20:18:16.812Z,97318.91
2022-09-20T20:20:27.175Z,97313.34
2022-09-20T20:22:47.711Z,97318.69
2022-09-20T20:24:52.490Z,97314.38
2022-09-20T20:26:55.786Z,97312.97
2022-09-20T20:29:02.426Z,97312.38
2022-09-20T20:31:06.126Z,97319.81
2022-09-20T20:33:15.217Z,97327.94
2022-09-20T20:35:20.602Z,97330.03
2022-09-20T20:37:23.905Z,97323.88
2022-09-20T20:39:26.763Z,97319.81
2022-09-20T20:41:31.801Z,97331.06
2022-09-20T20:43:36.373Z,97323.06
2022-09-20T20:45:41.727Z,97323.50
2022-09-20T20:47:46.691Z,97322.69
2022-09-20T20:49:53.337Z,97325.19
2022-09-20T20:51:59.734Z,97319.94
2022-09-20T20:54:04.522Z,97311.94
2022-09-20T20:56:09.750Z,97317.41
2022-09-20T20:58:12.818Z,97317.78
2022-09-20T21:00:16.621Z,97320.25
2022-09-20T21:02:19.626Z,97325.19
